sensor_id;sensor_type;location;lat;lon;timestamp;P1;durP1;ratioP1;P2;durP2;ratioP2
4806;SDS011;2417;52.482;13.432;2023-02-11T00:01:05;58.93;;;28.00;;
4806;SDS011;2417;52.482;13.432;2023-02-11T00:03:33;53.73;;;26.10;;
4806;SDS011;2417;52.482;13.432;2023-02-11T00:06:02;61.63;;;28.10;;
4806;SDS011;2417;52.482;13.432;2023-02-11T00:08:54;60.33;;;28.00;;
4806;SDS011;2417;52.482;13.432;2023-02-11T00:11:22;60.30;;;28.17;;
4806;SDS011;2417;52.482;13.432;2023-02-11T00:13:52;55.77;;;27.50;;
4806;SDS011;2417;52.482;13.432;2023-02-11T00:16:20;54.47;;;27.07;;
4806;SDS011;2417;52.482;13.432;2023-02-11T00:18:48;55.70;;;27.53;;
4806;SDS011;2417;52.482;13.432;2023-02-11T00:21:19;58.13;;;26.60;;
4806;SDS011;2417;52.482;13.432;2023-02-11T00:23:47;52.03;;;26.50;;
4806;SDS011;2417;52.482;13.432;2023-02-11T00:26:18;58.73;;;26.63;;
4806;SDS011;2417;52.482;13.432;2023-02-11T00:28:47;56.27;;;26.67;;
4806;SDS011;2417;52.482;13.432;2023-02-11T00:31:15;59.00;;;26.07;;
4806;SDS011;2417;52.482;13.432;2023-02-11T00:33:44;52.80;;;26.40;;
4806;SDS011;2417;52.482;13.432;2023-02-11T00:36:13;53.17;;;25.93;;
4806;SDS011;2417;52.482;13.432;2023-02-11T00:38:45;59.03;;;27.10;;
4806;SDS011;2417;52.482;13.432;2023-02-11T00:41:14;58.17;;;27.10;;
4806;SDS011;2417;52.482;13.432;2023-02-11T00:43:43;53.30;;;26.87;;
4806;SDS011;2417;52.482;13.432;2023-02-11T00:46:11;59.70;;;28.37;;
4806;SDS011;2417;52.482;13.432;2023-02-11T00:48:40;55.33;;;27.20;;
4806;SDS011;2417;52.482;13.432;2023-02-11T00:51:08;54.50;;;25.40;;
4806;SDS011;2417;52.482;13.432;2023-02-11T00:53:37;54.57;;;26.63;;
4806;SDS011;2417;52.482;13.432;2023-02-11T00:56:06;54.40;;;27.27;;
4806;SDS011;2417;52.482;13.432;2023-02-11T00:58:34;54.63;;;26.80;;
4806;SDS011;2417;52.482;13.432;2023-02-11T01:01:04;52.97;;;25.70;;
4806;SDS011;2417;52.482;13.432;2023-02-11T01:03:33;53.53;;;26.00;;
4806;SDS011;2417;52.482;13.432;2023-02-11T01:06:01;54.77;;;26.00;;
4806;SDS011;2417;52.482;13.432;2023-02-11T01:08:29;52.83;;;25.57;;
4806;SDS011;2417;52.482;13.432;2023-02-11T01:10:58;56.83;;;25.97;;
4806;SDS011;2417;52.482;13.432;2023-02-11T01:13:26;56.60;;;26.40;;
4806;SDS011;2417;52.482;13.432;2023-02-11T01:15:55;58.83;;;26.63;;
4806;SDS011;2417;52.482;13.432;2023-02-11T01:18:25;52.10;;;26.93;;
4806;SDS011;2417;52.482;13.432;2023-02-11T01:20:53;58.00;;;28.40;;
4806;SDS011;2417;52.482;13.432;2023-02-11T01:23:22;58.00;;;27.07;;
4806;SDS011;2417;52.482;13.432;2023-02-11T01:25:52;59.43;;;26.13;;
4806;SDS011;2417;52.482;13.432;2023-02-11T01:28:21;58.97;;;28.00;;
4806;SDS011;2417;52.482;13.432;2023-02-11T01:30:50;53.23;;;25.37;;
4806;SDS011;2417;52.482;13.432;2023-02-11T01:33:18;51.37;;;25.90;;
4806;SDS011;2417;52.482;13.432;2023-02-11T01:35:49;55.77;;;26.43;;
4806;SDS011;2417;52.482;13.432;2023-02-11T01:38:19;58.77;;;26.83;;
4806;SDS011;2417;52.482;13.432;2023-02-11T01:40:47;57.50;;;26.27;;
4806;SDS011;2417;52.482;13.432;2023-02-11T01:43:15;53.50;;;25.97;;
4806;SDS011;2417;52.482;13.432;2023-02-11T01:45:56;53.23;;;25.20;;
4806;SDS011;2417;52.482;13.432;2023-02-11T01:48:27;48.60;;;24.90;;
4806;SDS011;2417;52.482;13.432;2023-02-11T01:50:58;53.00;;;25.47;;
4806;SDS011;2417;52.482;13.432;2023-02-11T01:53:27;55.73;;;25.63;;
4806;SDS011;2417;52.482;13.432;2023-02-11T01:56:13;52.43;;;24.47;;
4806;SDS011;2417;52.482;13.432;2023-02-11T01:59:01;58.73;;;25.70;;
4806;SDS011;2417;52.482;13.432;2023-02-11T02:01:29;51.40;;;25.07;;
4806;SDS011;2417;52.482;13.432;2023-02-11T02:04:00;53.67;;;25.30;;
4806;SDS011;2417;52.482;13.432;2023-02-11T02:06:33;47.67;;;24.90;;
4806;SDS011;2417;52.482;13.432;2023-02-11T02:09:03;51.60;;;25.60;;
4806;SDS011;2417;52.482;13.432;2023-02-11T02:11:32;50.63;;;24.40;;
4806;SDS011;2417;52.482;13.432;2023-02-11T02:13:59;51.97;;;25.63;;
4806;SDS011;2417;52.482;13.432;2023-02-11T02:16:29;52.50;;;25.40;;
4806;SDS011;2417;52.482;13.432;2023-02-11T02:19:04;52.73;;;25.57;;
4806;SDS011;2417;52.482;13.432;2023-02-11T02:21:50;51.40;;;25.43;;
4806;SDS011;2417;52.482;13.432;2023-02-11T02:24:26;50.60;;;25.20;;
4806;SDS011;2417;52.482;13.432;2023-02-11T02:27:10;56.47;;;25.93;;
4806;SDS011;2417;52.482;13.432;2023-02-11T02:32:39;49.97;;;25.37;;
4806;SDS011;2417;52.482;13.432;2023-02-11T02:35:10;55.90;;;27.13;;
4806;SDS011;2417;52.482;13.432;2023-02-11T02:37:43;50.13;;;25.33;;
4806;SDS011;2417;52.482;13.432;2023-02-11T02:40:14;48.47;;;25.30;;
4806;SDS011;2417;52.482;13.432;2023-02-11T02:42:43;51.33;;;25.33;;
4806;SDS011;2417;52.482;13.432;2023-02-11T02:45:11;53.57;;;26.63;;
4806;SDS011;2417;52.482;13.432;2023-02-11T02:47:41;52.87;;;26.80;;
4806;SDS011;2417;52.482;13.432;2023-02-11T02:50:09;52.37;;;27.03;;
4806;SDS011;2417;52.482;13.432;2023-02-11T02:52:40;54.90;;;26.40;;
4806;SDS011;2417;52.482;13.432;2023-02-11T02:57:57;58.90;;;26.53;;
4806;SDS011;2417;52.482;13.432;2023-02-11T03:00:29;53.07;;;26.80;;
4806;SDS011;2417;52.482;13.432;2023-02-11T03:03:09;48.00;;;25.00;;
4806;SDS011;2417;52.482;13.432;2023-02-11T03:05:44;57.40;;;27.90;;
4806;SDS011;2417;52.482;13.432;2023-02-11T03:08:15;53.73;;;27.47;;
4806;SDS011;2417;52.482;13.432;2023-02-11T03:10:45;53.77;;;26.93;;
4806;SDS011;2417;52.482;13.432;2023-02-11T03:13:14;51.13;;;27.20;;
4806;SDS011;2417;52.482;13.432;2023-02-11T03:15:44;58.17;;;29.80;;
4806;SDS011;2417;52.482;13.432;2023-02-11T03:18:14;58.00;;;27.53;;
4806;SDS011;2417;52.482;13.432;2023-02-11T03:20:44;52.30;;;27.07;;
4806;SDS011;2417;52.482;13.432;2023-02-11T03:23:14;59.03;;;28.20;;
4806;SDS011;2417;52.482;13.432;2023-02-11T03:25:44;56.17;;;28.70;;
4806;SDS011;2417;52.482;13.432;2023-02-11T03:28:17;54.83;;;28.53;;
4806;SDS011;2417;52.482;13.432;2023-02-11T03:30:48;55.20;;;28.37;;
4806;SDS011;2417;52.482;13.432;2023-02-11T03:33:21;56.40;;;28.27;;
4806;SDS011;2417;52.482;13.432;2023-02-11T03:35:52;58.47;;;28.33;;
4806;SDS011;2417;52.482;13.432;2023-02-11T03:38:21;60.17;;;29.97;;
4806;SDS011;2417;52.482;13.432;2023-02-11T03:40:50;59.00;;;29.17;;
4806;SDS011;2417;52.482;13.432;2023-02-11T03:43:21;59.80;;;29.80;;
4806;SDS011;2417;52.482;13.432;2023-02-11T03:45:52;61.70;;;28.00;;
4806;SDS011;2417;52.482;13.432;2023-02-11T03:48:23;67.07;;;29.40;;
4806;SDS011;2417;52.482;13.432;2023-02-11T03:50:53;60.50;;;29.17;;
4806;SDS011;2417;52.482;13.432;2023-02-11T03:53:21;63.20;;;30.77;;
4806;SDS011;2417;52.482;13.432;2023-02-11T03:55:50;62.50;;;29.00;;
4806;SDS011;2417;52.482;13.432;2023-02-11T03:58:19;59.70;;;29.50;;
4806;SDS011;2417;52.482;13.432;2023-02-11T04:00:47;59.73;;;30.63;;
4806;SDS011;2417;52.482;13.432;2023-02-11T04:03:15;57.43;;;29.67;;
4806;SDS011;2417;52.482;13.432;2023-02-11T04:05:44;63.50;;;30.57;;
4806;SDS011;2417;52.482;13.432;2023-02-11T04:08:12;59.50;;;28.53;;
4806;SDS011;2417;52.482;13.432;2023-02-11T04:10:41;63.33;;;30.70;;
4806;SDS011;2417;52.482;13.432;2023-02-11T04:13:09;60.07;;;29.30;;
4806;SDS011;2417;52.482;13.432;2023-02-11T04:15:37;61.70;;;30.07;;
4806;SDS011;2417;52.482;13.432;2023-02-11T04:18:05;61.10;;;30.40;;
4806;SDS011;2417;52.482;13.432;2023-02-11T04:20:32;60.07;;;30.20;;
4806;SDS011;2417;52.482;13.432;2023-02-11T04:23:02;53.37;;;29.60;;
4806;SDS011;2417;52.482;13.432;2023-02-11T04:25:30;61.20;;;30.87;;
4806;SDS011;2417;52.482;13.432;2023-02-11T04:27:57;61.07;;;29.87;;
4806;SDS011;2417;52.482;13.432;2023-02-11T04:30:26;65.13;;;31.67;;
4806;SDS011;2417;52.482;13.432;2023-02-11T04:32:54;58.67;;;30.80;;
4806;SDS011;2417;52.482;13.432;2023-02-11T04:35:22;61.10;;;31.73;;
4806;SDS011;2417;52.482;13.432;2023-02-11T04:37:50;67.80;;;32.37;;
4806;SDS011;2417;52.482;13.432;2023-02-11T04:40:19;60.17;;;30.60;;
4806;SDS011;2417;52.482;13.432;2023-02-11T04:42:47;61.07;;;30.60;;
4806;SDS011;2417;52.482;13.432;2023-02-11T04:45:14;64.60;;;32.17;;
4806;SDS011;2417;52.482;13.432;2023-02-11T04:47:43;65.10;;;32.90;;
4806;SDS011;2417;52.482;13.432;2023-02-11T04:50:10;72.20;;;35.37;;
4806;SDS011;2417;52.482;13.432;2023-02-11T04:52:38;73.47;;;35.07;;
4806;SDS011;2417;52.482;13.432;2023-02-11T04:55:06;64.83;;;32.57;;
4806;SDS011;2417;52.482;13.432;2023-02-11T04:57:35;63.60;;;33.80;;
4806;SDS011;2417;52.482;13.432;2023-02-11T05:00:04;71.33;;;33.30;;
4806;SDS011;2417;52.482;13.432;2023-02-11T05:02:32;67.50;;;33.37;;
4806;SDS011;2417;52.482;13.432;2023-02-11T05:05:00;63.60;;;33.00;;
4806;SDS011;2417;52.482;13.432;2023-02-11T05:07:27;69.03;;;33.37;;
4806;SDS011;2417;52.482;13.432;2023-02-11T05:09:55;69.90;;;34.80;;
4806;SDS011;2417;52.482;13.432;2023-02-11T05:12:23;79.33;;;38.37;;
4806;SDS011;2417;52.482;13.432;2023-02-11T05:14:52;81.03;;;37.77;;
4806;SDS011;2417;52.482;13.432;2023-02-11T05:17:20;74.67;;;36.57;;
4806;SDS011;2417;52.482;13.432;2023-02-11T05:19:48;79.10;;;37.13;;
4806;SDS011;2417;52.482;13.432;2023-02-11T05:22:16;71.53;;;33.70;;
4806;SDS011;2417;52.482;13.432;2023-02-11T05:24:43;69.10;;;34.53;;
4806;SDS011;2417;52.482;13.432;2023-02-11T05:27:11;72.23;;;36.90;;
4806;SDS011;2417;52.482;13.432;2023-02-11T05:29:39;71.40;;;33.80;;
4806;SDS011;2417;52.482;13.432;2023-02-11T05:32:08;74.83;;;36.83;;
4806;SDS011;2417;52.482;13.432;2023-02-11T05:34:37;67.07;;;33.67;;
4806;SDS011;2417;52.482;13.432;2023-02-11T05:37:05;75.13;;;35.50;;
4806;SDS011;2417;52.482;13.432;2023-02-11T05:39:32;67.70;;;34.00;;
4806;SDS011;2417;52.482;13.432;2023-02-11T05:42:00;72.17;;;35.23;;
4806;SDS011;2417;52.482;13.432;2023-02-11T05:44:29;77.43;;;36.30;;
4806;SDS011;2417;52.482;13.432;2023-02-11T05:46:57;72.67;;;35.97;;
4806;SDS011;2417;52.482;13.432;2023-02-11T05:49:48;70.03;;;35.93;;
4806;SDS011;2417;52.482;13.432;2023-02-11T05:52:16;77.63;;;37.87;;
4806;SDS011;2417;52.482;13.432;2023-02-11T05:54:44;65.50;;;34.47;;
4806;SDS011;2417;52.482;13.432;2023-02-11T05:57:12;73.93;;;38.00;;
4806;SDS011;2417;52.482;13.432;2023-02-11T05:59:39;73.20;;;35.57;;
4806;SDS011;2417;52.482;13.432;2023-02-11T06:02:07;73.60;;;37.80;;
4806;SDS011;2417;52.482;13.432;2023-02-11T06:04:37;75.57;;;37.63;;
4806;SDS011;2417;52.482;13.432;2023-02-11T06:07:06;79.47;;;38.30;;
4806;SDS011;2417;52.482;13.432;2023-02-11T06:09:35;73.60;;;37.43;;
4806;SDS011;2417;52.482;13.432;2023-02-11T06:12:03;83.67;;;38.43;;
4806;SDS011;2417;52.482;13.432;2023-02-11T06:14:31;75.20;;;36.77;;
4806;SDS011;2417;52.482;13.432;2023-02-11T06:16:59;81.67;;;39.23;;
4806;SDS011;2417;52.482;13.432;2023-02-11T06:19:27;77.97;;;38.33;;
4806;SDS011;2417;52.482;13.432;2023-02-11T06:21:54;82.00;;;38.87;;
4806;SDS011;2417;52.482;13.432;2023-02-11T06:24:24;75.83;;;37.23;;
4806;SDS011;2417;52.482;13.432;2023-02-11T06:27:12;82.40;;;39.20;;
4806;SDS011;2417;52.482;13.432;2023-02-11T06:29:40;81.10;;;40.10;;
4806;SDS011;2417;52.482;13.432;2023-02-11T06:32:08;87.03;;;40.37;;
4806;SDS011;2417;52.482;13.432;2023-02-11T06:34:56;80.40;;;39.30;;
4806;SDS011;2417;52.482;13.432;2023-02-11T06:37:23;82.93;;;39.87;;
4806;SDS011;2417;52.482;13.432;2023-02-11T06:39:53;80.20;;;38.80;;
4806;SDS011;2417;52.482;13.432;2023-02-11T06:42:20;87.90;;;38.97;;
4806;SDS011;2417;52.482;13.432;2023-02-11T06:44:48;88.30;;;41.37;;
4806;SDS011;2417;52.482;13.432;2023-02-11T06:47:16;88.73;;;39.87;;
4806;SDS011;2417;52.482;13.432;2023-02-11T06:49:44;86.53;;;39.67;;
4806;SDS011;2417;52.482;13.432;2023-02-11T06:52:12;91.07;;;42.97;;
4806;SDS011;2417;52.482;13.432;2023-02-11T06:54:40;86.70;;;41.37;;
4806;SDS011;2417;52.482;13.432;2023-02-11T06:57:09;93.50;;;40.40;;
4806;SDS011;2417;52.482;13.432;2023-02-11T06:59:37;91.83;;;41.07;;
4806;SDS011;2417;52.482;13.432;2023-02-11T07:02:05;94.27;;;41.37;;
4806;SDS011;2417;52.482;13.432;2023-02-11T07:04:33;92.70;;;41.10;;
4806;SDS011;2417;52.482;13.432;2023-02-11T07:07:00;84.17;;;40.13;;
4806;SDS011;2417;52.482;13.432;2023-02-11T07:09:28;83.50;;;42.47;;
4806;SDS011;2417;52.482;13.432;2023-02-11T07:11:56;87.50;;;39.87;;
4806;SDS011;2417;52.482;13.432;2023-02-11T07:14:25;86.43;;;41.43;;
4806;SDS011;2417;52.482;13.432;2023-02-11T07:16:53;85.60;;;39.90;;
4806;SDS011;2417;52.482;13.432;2023-02-11T07:19:20;81.70;;;40.07;;
4806;SDS011;2417;52.482;13.432;2023-02-11T07:21:48;81.93;;;39.03;;
4806;SDS011;2417;52.482;13.432;2023-02-11T07:24:16;82.17;;;40.10;;
4806;SDS011;2417;52.482;13.432;2023-02-11T07:26:44;86.47;;;40.27;;
4806;SDS011;2417;52.482;13.432;2023-02-11T07:29:13;79.40;;;38.73;;
4806;SDS011;2417;52.482;13.432;2023-02-11T07:31:42;90.60;;;39.00;;
4806;SDS011;2417;52.482;13.432;2023-02-11T07:34:11;83.40;;;40.80;;
4806;SDS011;2417;52.482;13.432;2023-02-11T07:36:38;80.00;;;39.50;;
4806;SDS011;2417;52.482;13.432;2023-02-11T07:39:09;81.50;;;40.00;;
4806;SDS011;2417;52.482;13.432;2023-02-11T07:41:37;89.57;;;39.90;;
4806;SDS011;2417;52.482;13.432;2023-02-11T07:44:05;75.77;;;38.10;;
4806;SDS011;2417;52.482;13.432;2023-02-11T07:46:33;74.80;;;37.73;;
4806;SDS011;2417;52.482;13.432;2023-02-11T07:49:02;87.27;;;40.07;;
4806;SDS011;2417;52.482;13.432;2023-02-11T07:51:30;76.37;;;37.37;;
4806;SDS011;2417;52.482;13.432;2023-02-11T07:53:58;78.87;;;38.50;;
4806;SDS011;2417;52.482;13.432;2023-02-11T07:56:27;76.00;;;38.73;;
4806;SDS011;2417;52.482;13.432;2023-02-11T07:58:55;79.43;;;38.50;;
4806;SDS011;2417;52.482;13.432;2023-02-11T08:01:26;81.90;;;37.87;;
4806;SDS011;2417;52.482;13.432;2023-02-11T08:03:55;81.37;;;39.70;;
4806;SDS011;2417;52.482;13.432;2023-02-11T08:06:25;74.50;;;37.40;;
4806;SDS011;2417;52.482;13.432;2023-02-11T08:08:54;78.30;;;36.57;;
4806;SDS011;2417;52.482;13.432;2023-02-11T08:11:22;83.53;;;38.63;;
4806;SDS011;2417;52.482;13.432;2023-02-11T08:13:51;76.10;;;36.83;;
4806;SDS011;2417;52.482;13.432;2023-02-11T08:16:19;81.50;;;38.27;;
4806;SDS011;2417;52.482;13.432;2023-02-11T08:18:48;76.93;;;37.70;;
4806;SDS011;2417;52.482;13.432;2023-02-11T08:21:16;74.87;;;36.30;;
4806;SDS011;2417;52.482;13.432;2023-02-11T08:23:45;72.67;;;36.20;;
4806;SDS011;2417;52.482;13.432;2023-02-11T08:26:16;75.67;;;36.73;;
4806;SDS011;2417;52.482;13.432;2023-02-11T08:28:44;74.47;;;36.93;;
4806;SDS011;2417;52.482;13.432;2023-02-11T08:31:13;71.97;;;36.10;;
4806;SDS011;2417;52.482;13.432;2023-02-11T08:33:42;75.07;;;38.20;;
4806;SDS011;2417;52.482;13.432;2023-02-11T08:36:11;76.70;;;37.27;;
4806;SDS011;2417;52.482;13.432;2023-02-11T08:38:38;79.83;;;37.70;;
4806;SDS011;2417;52.482;13.432;2023-02-11T08:41:08;79.30;;;38.17;;
4806;SDS011;2417;52.482;13.432;2023-02-11T08:43:36;76.40;;;36.30;;
4806;SDS011;2417;52.482;13.432;2023-02-11T08:46:07;83.47;;;38.17;;
4806;SDS011;2417;52.482;13.432;2023-02-11T08:48:35;81.90;;;39.23;;
4806;SDS011;2417;52.482;13.432;2023-02-11T08:51:04;81.73;;;38.70;;
4806;SDS011;2417;52.482;13.432;2023-02-11T08:53:33;75.40;;;36.77;;
4806;SDS011;2417;52.482;13.432;2023-02-11T08:56:01;75.97;;;36.43;;
4806;SDS011;2417;52.482;13.432;2023-02-11T08:58:30;76.83;;;35.90;;
4806;SDS011;2417;52.482;13.432;2023-02-11T09:00:58;72.50;;;35.67;;
4806;SDS011;2417;52.482;13.432;2023-02-11T09:03:26;72.90;;;36.27;;
4806;SDS011;2417;52.482;13.432;2023-02-11T09:05:55;73.33;;;35.40;;
4806;SDS011;2417;52.482;13.432;2023-02-11T09:08:24;72.97;;;35.20;;
4806;SDS011;2417;52.482;13.432;2023-02-11T09:10:54;71.37;;;36.47;;
4806;SDS011;2417;52.482;13.432;2023-02-11T09:13:22;73.30;;;34.90;;
4806;SDS011;2417;52.482;13.432;2023-02-11T09:15:51;77.67;;;35.70;;
4806;SDS011;2417;52.482;13.432;2023-02-11T09:18:19;66.63;;;35.10;;
4806;SDS011;2417;52.482;13.432;2023-02-11T09:20:47;61.77;;;34.13;;
4806;SDS011;2417;52.482;13.432;2023-02-11T09:23:15;68.40;;;34.80;;
4806;SDS011;2417;52.482;13.432;2023-02-11T09:25:44;66.40;;;34.33;;
4806;SDS011;2417;52.482;13.432;2023-02-11T09:28:12;73.00;;;34.10;;
4806;SDS011;2417;52.482;13.432;2023-02-11T09:30:39;69.90;;;32.33;;
4806;SDS011;2417;52.482;13.432;2023-02-11T09:33:10;69.57;;;33.40;;
4806;SDS011;2417;52.482;13.432;2023-02-11T09:35:38;68.63;;;31.30;;
4806;SDS011;2417;52.482;13.432;2023-02-11T09:38:05;63.97;;;33.10;;
4806;SDS011;2417;52.482;13.432;2023-02-11T09:40:33;61.53;;;31.80;;
4806;SDS011;2417;52.482;13.432;2023-02-11T09:43:02;69.47;;;31.90;;
4806;SDS011;2417;52.482;13.432;2023-02-11T09:45:31;67.70;;;32.70;;
4806;SDS011;2417;52.482;13.432;2023-02-11T09:47:59;62.77;;;33.57;;
4806;SDS011;2417;52.482;13.432;2023-02-11T09:50:33;64.70;;;31.27;;
4806;SDS011;2417;52.482;13.432;2023-02-11T09:53:03;67.10;;;33.60;;
4806;SDS011;2417;52.482;13.432;2023-02-11T09:55:32;69.73;;;32.33;;
4806;SDS011;2417;52.482;13.432;2023-02-11T09:58:03;68.80;;;32.60;;
4806;SDS011;2417;52.482;13.432;2023-02-11T10:00:32;63.77;;;32.50;;
4806;SDS011;2417;52.482;13.432;2023-02-11T10:03:12;66.23;;;31.90;;
4806;SDS011;2417;52.482;13.432;2023-02-11T10:05:51;66.03;;;32.30;;
4806;SDS011;2417;52.482;13.432;2023-02-11T10:08:25;65.73;;;32.97;;
4806;SDS011;2417;52.482;13.432;2023-02-11T10:10:57;63.17;;;31.90;;
4806;SDS011;2417;52.482;13.432;2023-02-11T10:13:44;64.57;;;32.30;;
4806;SDS011;2417;52.482;13.432;2023-02-11T10:16:19;70.10;;;32.87;;
4806;SDS011;2417;52.482;13.432;2023-02-11T10:18:56;71.37;;;32.23;;
4806;SDS011;2417;52.482;13.432;2023-02-11T10:21:29;65.27;;;34.03;;
4806;SDS011;2417;52.482;13.432;2023-02-11T10:23:59;66.53;;;33.17;;
4806;SDS011;2417;52.482;13.432;2023-02-11T10:26:29;72.97;;;33.60;;
4806;SDS011;2417;52.482;13.432;2023-02-11T10:28:58;69.30;;;34.23;;
4806;SDS011;2417;52.482;13.432;2023-02-11T10:31:33;69.70;;;32.27;;
4806;SDS011;2417;52.482;13.432;2023-02-11T10:34:03;72.73;;;35.07;;
4806;SDS011;2417;52.482;13.432;2023-02-11T10:36:34;75.47;;;36.07;;
4806;SDS011;2417;52.482;13.432;2023-02-11T10:39:08;69.20;;;34.47;;
4806;SDS011;2417;52.482;13.432;2023-02-11T10:41:39;69.63;;;33.23;;
4806;SDS011;2417;52.482;13.432;2023-02-11T10:44:10;56.67;;;28.40;;
4806;SDS011;2417;52.482;13.432;2023-02-11T10:46:39;64.57;;;31.40;;
4806;SDS011;2417;52.482;13.432;2023-02-11T10:49:06;60.10;;;31.50;;
4806;SDS011;2417;52.482;13.432;2023-02-11T10:51:36;62.60;;;31.63;;
4806;SDS011;2417;52.482;13.432;2023-02-11T10:54:11;60.57;;;30.80;;
4806;SDS011;2417;52.482;13.432;2023-02-11T10:56:43;59.37;;;31.07;;
4806;SDS011;2417;52.482;13.432;2023-02-11T10:59:13;64.17;;;31.07;;
4806;SDS011;2417;52.482;13.432;2023-02-11T11:01:42;59.27;;;31.00;;
4806;SDS011;2417;52.482;13.432;2023-02-11T11:04:25;66.00;;;31.97;;
4806;SDS011;2417;52.482;13.432;2023-02-11T11:07:09;60.27;;;30.73;;
4806;SDS011;2417;52.482;13.432;2023-02-11T11:09:42;63.37;;;31.10;;
4806;SDS011;2417;52.482;13.432;2023-02-11T11:12:20;68.77;;;32.20;;
4806;SDS011;2417;52.482;13.432;2023-02-11T11:14:52;64.27;;;31.80;;
4806;SDS011;2417;52.482;13.432;2023-02-11T11:17:20;70.57;;;33.43;;
4806;SDS011;2417;52.482;13.432;2023-02-11T11:19:51;63.07;;;31.40;;
4806;SDS011;2417;52.482;13.432;2023-02-11T11:22:21;68.57;;;30.87;;
4806;SDS011;2417;52.482;13.432;2023-02-11T11:24:49;76.97;;;33.77;;
4806;SDS011;2417;52.482;13.432;2023-02-11T11:27:20;70.73;;;32.50;;
4806;SDS011;2417;52.482;13.432;2023-02-11T11:29:50;70.70;;;32.40;;
4806;SDS011;2417;52.482;13.432;2023-02-11T11:32:21;75.20;;;32.70;;
4806;SDS011;2417;52.482;13.432;2023-02-11T11:34:50;75.30;;;32.60;;
4806;SDS011;2417;52.482;13.432;2023-02-11T11:37:21;76.93;;;33.40;;
4806;SDS011;2417;52.482;13.432;2023-02-11T11:39:52;69.23;;;31.53;;
4806;SDS011;2417;52.482;13.432;2023-02-11T11:42:25;70.60;;;32.63;;
4806;SDS011;2417;52.482;13.432;2023-02-11T11:44:55;73.00;;;33.63;;
4806;SDS011;2417;52.482;13.432;2023-02-11T11:47:25;66.83;;;32.83;;
4806;SDS011;2417;52.482;13.432;2023-02-11T11:52:43;68.10;;;31.30;;
4806;SDS011;2417;52.482;13.432;2023-02-11T11:55:15;80.60;;;32.30;;
4806;SDS011;2417;52.482;13.432;2023-02-11T11:57:43;71.47;;;31.77;;
4806;SDS011;2417;52.482;13.432;2023-02-11T12:00:14;66.70;;;32.27;;
4806;SDS011;2417;52.482;13.432;2023-02-11T12:05:31;69.10;;;32.30;;
4806;SDS011;2417;52.482;13.432;2023-02-11T12:08:06;71.10;;;32.43;;
4806;SDS011;2417;52.482;13.432;2023-02-11T12:10:41;79.40;;;34.10;;
4806;SDS011;2417;52.482;13.432;2023-02-11T12:13:15;71.10;;;31.97;;
4806;SDS011;2417;52.482;13.432;2023-02-11T12:15:49;69.93;;;31.27;;
4806;SDS011;2417;52.482;13.432;2023-02-11T12:18:32;74.67;;;32.37;;
4806;SDS011;2417;52.482;13.432;2023-02-11T12:21:17;67.30;;;31.90;;
4806;SDS011;2417;52.482;13.432;2023-02-11T12:23:54;63.13;;;31.17;;
4806;SDS011;2417;52.482;13.432;2023-02-11T12:26:26;69.40;;;31.47;;
4806;SDS011;2417;52.482;13.432;2023-02-11T12:29:01;67.73;;;30.57;;
4806;SDS011;2417;52.482;13.432;2023-02-11T12:34:28;72.10;;;32.10;;
4806;SDS011;2417;52.482;13.432;2023-02-11T12:37:00;67.00;;;29.83;;
4806;SDS011;2417;52.482;13.432;2023-02-11T12:39:38;60.17;;;27.47;;
4806;SDS011;2417;52.482;13.432;2023-02-11T12:42:20;68.73;;;28.63;;
4806;SDS011;2417;52.482;13.432;2023-02-11T12:45:17;60.17;;;30.07;;
4806;SDS011;2417;52.482;13.432;2023-02-11T12:47:51;59.53;;;28.17;;
4806;SDS011;2417;52.482;13.432;2023-02-11T12:50:23;62.90;;;28.30;;
4806;SDS011;2417;52.482;13.432;2023-02-11T12:52:56;61.50;;;27.40;;
4806;SDS011;2417;52.482;13.432;2023-02-11T12:55:29;59.83;;;28.03;;
4806;SDS011;2417;52.482;13.432;2023-02-11T12:58:02;59.63;;;27.37;;
4806;SDS011;2417;52.482;13.432;2023-02-11T13:00:35;55.40;;;27.10;;
4806;SDS011;2417;52.482;13.432;2023-02-11T13:03:06;65.50;;;28.37;;
4806;SDS011;2417;52.482;13.432;2023-02-11T13:05:38;61.50;;;28.10;;
4806;SDS011;2417;52.482;13.432;2023-02-11T13:08:09;59.20;;;27.30;;
4806;SDS011;2417;52.482;13.432;2023-02-11T13:10:40;63.63;;;27.87;;
4806;SDS011;2417;52.482;13.432;2023-02-11T13:13:10;59.90;;;27.83;;
4806;SDS011;2417;52.482;13.432;2023-02-11T13:15:44;57.70;;;26.50;;
4806;SDS011;2417;52.482;13.432;2023-02-11T13:18:16;56.77;;;26.20;;
4806;SDS011;2417;52.482;13.432;2023-02-11T13:20:48;59.53;;;26.70;;
4806;SDS011;2417;52.482;13.432;2023-02-11T13:23:20;55.43;;;25.87;;
4806;SDS011;2417;52.482;13.432;2023-02-11T13:25:53;68.50;;;28.67;;
4806;SDS011;2417;52.482;13.432;2023-02-11T13:28:26;59.93;;;27.80;;
4806;SDS011;2417;52.482;13.432;2023-02-11T13:30:58;55.90;;;27.30;;
4806;SDS011;2417;52.482;13.432;2023-02-11T13:33:31;61.63;;;27.57;;
4806;SDS011;2417;52.482;13.432;2023-02-11T13:36:15;64.47;;;27.90;;
4806;SDS011;2417;52.482;13.432;2023-02-11T13:39:00;55.40;;;27.73;;
4806;SDS011;2417;52.482;13.432;2023-02-11T13:41:31;55.87;;;27.53;;
4806;SDS011;2417;52.482;13.432;2023-02-11T13:44:02;61.17;;;26.23;;
4806;SDS011;2417;52.482;13.432;2023-02-11T13:46:46;55.30;;;26.43;;
4806;SDS011;2417;52.482;13.432;2023-02-11T13:49:17;49.90;;;26.53;;
4806;SDS011;2417;52.482;13.432;2023-02-11T13:51:46;56.23;;;26.20;;
4806;SDS011;2417;52.482;13.432;2023-02-11T13:54:19;57.13;;;26.60;;
4806;SDS011;2417;52.482;13.432;2023-02-11T13:59:45;61.87;;;26.60;;
4806;SDS011;2417;52.482;13.432;2023-02-11T14:02:21;50.80;;;26.30;;
4806;SDS011;2417;52.482;13.432;2023-02-11T14:05:27;53.60;;;25.93;;
4806;SDS011;2417;52.482;13.432;2023-02-11T14:08:14;63.77;;;27.13;;
4806;SDS011;2417;52.482;13.432;2023-02-11T14:11:03;49.07;;;25.47;;
4806;SDS011;2417;52.482;13.432;2023-02-11T14:13:35;53.13;;;25.90;;
4806;SDS011;2417;52.482;13.432;2023-02-11T14:16:06;53.00;;;26.50;;
4806;SDS011;2417;52.482;13.432;2023-02-11T14:18:36;60.53;;;27.23;;
4806;SDS011;2417;52.482;13.432;2023-02-11T14:21:09;53.70;;;26.27;;
4806;SDS011;2417;52.482;13.432;2023-02-11T14:23:39;61.30;;;27.60;;
4806;SDS011;2417;52.482;13.432;2023-02-11T14:28:58;62.60;;;27.90;;
4806;SDS011;2417;52.482;13.432;2023-02-11T14:31:30;57.50;;;27.17;;
4806;SDS011;2417;52.482;13.432;2023-02-11T14:36:52;53.87;;;25.47;;
4806;SDS011;2417;52.482;13.432;2023-02-11T14:39:24;60.23;;;26.63;;
4806;SDS011;2417;52.482;13.432;2023-02-11T14:41:56;56.57;;;25.40;;
4806;SDS011;2417;52.482;13.432;2023-02-11T14:44:24;53.97;;;25.17;;
4806;SDS011;2417;52.482;13.432;2023-02-11T14:46:54;60.10;;;25.60;;
4806;SDS011;2417;52.482;13.432;2023-02-11T14:49:24;56.30;;;26.10;;
4806;SDS011;2417;52.482;13.432;2023-02-11T14:51:53;55.77;;;26.63;;
4806;SDS011;2417;52.482;13.432;2023-02-11T14:54:22;48.13;;;23.43;;
4806;SDS011;2417;52.482;13.432;2023-02-11T14:57:11;55.30;;;24.90;;
4806;SDS011;2417;52.482;13.432;2023-02-11T14:59:40;49.53;;;22.83;;
4806;SDS011;2417;52.482;13.432;2023-02-11T15:02:22;51.20;;;23.50;;
4806;SDS011;2417;52.482;13.432;2023-02-11T15:04:51;52.27;;;23.73;;
4806;SDS011;2417;52.482;13.432;2023-02-11T15:07:20;49.63;;;22.20;;
4806;SDS011;2417;52.482;13.432;2023-02-11T15:09:49;50.73;;;23.10;;
4806;SDS011;2417;52.482;13.432;2023-02-11T15:12:18;48.77;;;22.50;;
4806;SDS011;2417;52.482;13.432;2023-02-11T15:14:49;48.07;;;21.87;;
4806;SDS011;2417;52.482;13.432;2023-02-11T15:17:19;51.37;;;22.50;;